createdAt,value
2022-11-21T00:00:49.803Z,1.954956
2022-11-21T00:04:15.033Z,1.904602
2022-11-21T00:07:40.331Z,1.954956
2022-11-21T00:11:05.560Z,1.904602
2022-11-21T00:14:30.758Z,2.015381
2022-11-21T00:17:56.009Z,2.065735
2022-11-21T00:21:21.238Z,2.065735
2022-11-21T00:24:48.584Z,2.055664
2022-11-21T00:28:11.727Z,2.176514
2022-11-21T00:31:36.987Z,2.226868
2022-11-21T00:35:02.226Z,2.357788
2022-11-21T00:38:27.473Z,2.357788
2022-11-21T00:41:52.690Z,2.37793
2022-11-21T00:45:22.865Z,2.37793
2022-11-21T00:48:43.141Z,2.37793
2022-11-21T00:52:08.407Z,2.408142
2022-11-21T00:55:33.697Z,2.448425
2022-11-21T00:58:58.926Z,2.518921
2022-11-21T01:02:24.187Z,2.528992
2022-11-21T01:05:49.447Z,2.539062
2022-11-21T01:09:14.686Z,2.599487
2022-11-21T01:12:39.936Z,2.659912
2022-11-21T01:16:05.169Z,2.669983
2022-11-21T01:19:30.365Z,2.659912
2022-11-21T01:22:55.602Z,2.720337
2022-11-21T01:26:20.863Z,2.780762
2022-11-21T01:29:46.083Z,2.851257
2022-11-21T01:33:11.286Z,2.891541
2022-11-21T01:36:36.502Z,2.962036
2022-11-21T01:40:01.716Z,2.962036
2022-11-21T01:43:26.948Z,3.002319
2022-11-21T01:46:52.188Z,2.962036
2022-11-21T01:50:17.397Z,3.022461
2022-11-21T01:53:42.665Z,3.032532
2022-11-21T01:57:07.939Z,3.002319
2022-11-21T02:00:33.156Z,2.992249
2022-11-21T02:03:58.421Z,2.992249
2022-11-21T02:07:23.637Z,2.962036
2022-11-21T02:10:48.865Z,2.851257
2022-11-21T02:14:14.101Z,2.841187
2022-11-21T02:17:39.321Z,2.790833
2022-11-21T02:21:04.572Z,2.841187
2022-11-21T02:24:29.960Z,2.871399
2022-11-21T02:27:55.009Z,2.851257
2022-11-21T02:31:20.231Z,2.891541
2022-11-21T02:34:45.437Z,2.972107
2022-11-21T02:38:10.679Z,2.972107
2022-11-21T02:41:35.912Z,2.951965
2022-11-21T02:45:01.137Z,2.851257
2022-11-21T02:48:26.357Z,2.790833
2022-11-21T02:51:51.593Z,2.790833
2022-11-21T02:55:16.849Z,2.841187
2022-11-21T02:58:42.022Z,2.951965
2022-11-21T03:02:07.263Z,2.851257
2022-11-21T03:05:32.496Z,2.921753
2022-11-21T03:08:57.707Z,2.992249
2022-11-21T03:12:22.965Z,3.082886
2022-11-21T03:15:48.128Z,3.103027
2022-11-21T03:19:13.334Z,3.103027
2022-11-21T03:22:38.557Z,3.153381
2022-11-21T03:26:03.806Z,3.203735
2022-11-21T03:29:29.052Z,3.203735
2022-11-21T03:32:54.265Z,3.183594
2022-11-21T03:36:19.473Z,3.183594
2022-11-21T03:39:44.673Z,3.213806
2022-11-21T03:43:09.907Z,3.213806
2022-11-21T03:46:35.139Z,3.153381
2022-11-21T03:50:00.349Z,3.183594
2022-11-21T03:53:25.565Z,3.183594
2022-11-21T03:56:50.781Z,3.213806
2022-11-21T04:00:16.005Z,3.113098
2022-11-21T04:03:41.259Z,3.13324
2022-11-21T04:07:06.528Z,3.143311
2022-11-21T04:10:31.729Z,3.203735
2022-11-21T04:13:56.946Z,3.153381
2022-11-21T04:17:22.168Z,3.113098
2022-11-21T04:20:47.396Z,3.082886
2022-11-21T04:24:12.585Z,3.052673
2022-11-21T04:27:37.795Z,3.103027
2022-11-21T04:31:05.792Z,3.143311
2022-11-21T04:34:28.422Z,3.143311
2022-11-21T04:37:53.495Z,3.203735
2022-11-21T04:41:18.692Z,3.153381
2022-11-21T04:44:43.907Z,3.13324
2022-11-21T04:48:09.138Z,3.173523
2022-11-21T04:51:34.333Z,3.244019
2022-11-21T04:54:59.580Z,3.233948
2022-11-21T04:58:24.782Z,3.244019
2022-11-21T05:01:50.045Z,3.244019
2022-11-21T05:05:15.344Z,3.334656
2022-11-21T05:08:40.570Z,3.38501
2022-11-21T05:12:05.818Z,3.324585
2022-11-21T05:15:31.050Z,3.354797
2022-11-21T05:18:56.270Z,3.334656
2022-11-21T05:22:21.510Z,3.395081
2022-11-21T05:25:46.731Z,3.324585
2022-11-21T05:29:11.991Z,3.284302
2022-11-21T05:32:37.210Z,3.324585
2022-11-21T05:36:02.474Z,3.284302
2022-11-21T05:39:27.696Z,3.324585
2022-11-21T05:42:52.932Z,3.354797
2022-11-21T05:46:18.165Z,3.415222
2022-11-21T05:49:43.428Z,3.415222
2022-11-21T05:53:08.732Z,3.445435
2022-11-21T05:56:33.952Z,3.505859
2022-11-21T05:59:59.145Z,3.546143
2022-11-21T06:03:24.531Z,3.536072
2022-11-21T06:06:49.619Z,3.576355
2022-11-21T06:10:14.856Z,3.687134
2022-11-21T06:13:40.934Z,3.727417
2022-11-21T06:17:06.157Z,3.697205
2022-11-21T06:20:31.388Z,3.596497
2022-11-21T06:23:56.590Z,3.465576
2022-11-21T06:27:21.808Z,3.425293
2022-11-21T06:30:47.028Z,3.314514
2022-11-21T06:34:12.264Z,3.284302
2022-11-21T06:37:37.544Z,3.213806
2022-11-21T06:41:02.732Z,3.213806
2022-11-21T06:44:28.155Z,3.153381
2022-11-21T06:47:53.169Z,3.13324
2022-11-21T06:51:18.366Z,3.203735
2022-11-21T06:54:43.599Z,3.203735
2022-11-21T06:58:08.805Z,3.153381
2022-11-21T07:01:34.061Z,3.203735
2022-11-21T07:04:59.285Z,3.233948
2022-11-21T07:08:24.543Z,3.26416
2022-11-21T07:11:49.825Z,3.324585
2022-11-21T07:15:15.040Z,3.324585
2022-11-21T07:18:40.349Z,3.354797
2022-11-21T07:22:05.597Z,3.38501
2022-11-21T07:25:35.310Z,3.395081
2022-11-21T07:28:56.023Z,3.334656
2022-11-21T07:32:21.199Z,3.324585
2022-11-21T07:35:46.404Z,3.334656
2022-11-21T07:39:11.621Z,3.38501
2022-11-21T07:42:36.817Z,3.364868
2022-11-21T07:46:02.059Z,3.354797
2022-11-21T07:49:27.357Z,3.324585
2022-11-21T07:52:52.433Z,3.284302
2022-11-21T07:56:17.635Z,3.364868
2022-11-21T07:59:42.824Z,3.475647
2022-11-21T08:03:08.059Z,3.536072
2022-11-21T08:06:33.242Z,3.536072
2022-11-21T08:09:58.438Z,3.677063
2022-11-21T08:13:23.662Z,3.697205
2022-11-21T08:16:48.861Z,3.576355
2022-11-21T08:20:14.093Z,3.616638
2022-11-21T08:23:39.274Z,3.727417
2022-11-21T08:27:05.465Z,3.797913
2022-11-21T08:30:30.678Z,3.868408
2022-11-21T08:33:55.871Z,3.868408
2022-11-21T08:37:21.104Z,3.797913
2022-11-21T08:40:46.282Z,3.868408
2022-11-21T08:44:14.181Z,3.838196
2022-11-21T08:47:36.682Z,3.777771
2022-11-21T08:51:01.901Z,3.697205
2022-11-21T08:54:27.534Z,3.747559
2022-11-21T08:57:52.328Z,3.858337
2022-11-21T09:01:17.588Z,3.908691
2022-11-21T09:04:42.748Z,4.049683
2022-11-21T09:08:07.947Z,3.999329
2022-11-21T09:11:33.175Z,4.089966
2022-11-21T09:14:58.343Z,4.14032
2022-11-21T09:18:23.563Z,4.160461
2022-11-21T09:21:48.760Z,4.160461
2022-11-21T09:25:13.956Z,4.230957
2022-11-21T09:28:39.190Z,4.200745
2022-11-21T09:32:04.394Z,4.230957
2022-11-21T09:35:29.561Z,4.241028
2022-11-21T09:38:54.745Z,4.301453
2022-11-21T09:42:19.962Z,4.361877
2022-11-21T09:45:45.206Z,4.452515
2022-11-21T09:49:10.376Z,4.52301
2022-11-21T09:52:35.589Z,4.623718
2022-11-21T09:56:00.806Z,4.664001
2022-11-21T09:59:25.999Z,4.704285
2022-11-21T10:02:51.257Z,4.704285
2022-11-21T10:06:16.452Z,4.734497
2022-11-21T10:09:41.642Z,4.603577
2022-11-21T10:13:06.857Z,4.815063
2022-11-21T10:16:32.111Z,4.996338
2022-11-21T10:19:57.338Z,5.086975
2022-11-21T10:23:22.545Z,5.02655
2022-11-21T10:26:47.751Z,5.036621
2022-11-21T10:30:12.936Z,5.016479
2022-11-21T10:33:38.134Z,5.1474
2022-11-21T10:37:06.443Z,5.177612
2022-11-21T10:40:28.560Z,5.177612
2022-11-21T10:43:53.763Z,5.177612
2022-11-21T10:47:18.964Z,5.066833
2022-11-21T10:50:44.172Z,4.966125
2022-11-21T10:54:09.549Z,4.956055
2022-11-21T10:57:34.762Z,5.016479
2022-11-21T11:01:00.037Z,4.956055
2022-11-21T11:04:28.036Z,4.885559
2022-11-21T11:07:50.475Z,4.915771
2022-11-21T11:11:15.659Z,4.956055
2022-11-21T11:14:40.845Z,4.966125
2022-11-21T11:18:09.549Z,4.935913
2022-11-21T11:21:31.302Z,4.966125
2022-11-21T11:25:00.371Z,5.056763
2022-11-21T11:28:21.806Z,5.167542
2022-11-21T11:31:46.992Z,5.1474
2022-11-21T11:35:12.239Z,5.056763
2022-11-21T11:38:37.985Z,4.966125
2022-11-21T11:42:03.341Z,4.875488
2022-11-21T11:45:28.795Z,4.784851
2022-11-21T11:49:17.829Z,4.804993
2022-11-21T11:52:19.168Z,4.694214
2022-11-21T11:55:44.380Z,4.623718
2022-11-21T11:59:09.621Z,4.653931
2022-11-21T12:02:34.907Z,4.704285
2022-11-21T12:06:02.505Z,4.804993
2022-11-21T12:09:25.453Z,4.804993
2022-11-21T12:12:50.564Z,4.855347
2022-11-21T12:16:15.790Z,4.905701
2022-11-21T12:19:41.043Z,4.845276
2022-11-21T12:23:06.261Z,4.905701
2022-11-21T12:26:31.500Z,4.835205
2022-11-21T12:29:56.763Z,4.855347
2022-11-21T12:33:22.005Z,4.855347
2022-11-21T12:36:47.251Z,4.835205
2022-11-21T12:40:12.478Z,4.815063
2022-11-21T12:43:37.695Z,4.77478
2022-11-21T12:47:02.914Z,4.633789
2022-11-21T12:50:28.155Z,4.603577
2022-11-21T12:53:53.389Z,4.674072
2022-11-21T12:57:18.574Z,4.653931
2022-11-21T13:00:43.809Z,4.734497
2022-11-21T13:04:09.098Z,4.845276
2022-11-21T13:07:34.370Z,4.804993
2022-11-21T13:10:59.574Z,4.724426
2022-11-21T13:14:24.784Z,4.664001
2022-11-21T13:17:50.017Z,4.664001
2022-11-21T13:21:15.269Z,4.603577
2022-11-21T13:24:40.508Z,4.674072
2022-11-21T13:28:06.450Z,4.724426
2022-11-21T13:31:31.781Z,4.804993
2022-11-21T13:34:57.010Z,4.815063
2022-11-21T13:38:22.289Z,4.855347
2022-11-21T13:41:47.528Z,4.835205
2022-11-21T13:45:12.800Z,4.835205
2022-11-21T13:48:38.007Z,4.835205
2022-11-21T13:52:03.292Z,4.724426
2022-11-21T13:55:28.606Z,4.603577
2022-11-21T13:58:53.920Z,4.593506
2022-11-21T14:02:19.216Z,4.543152
2022-11-21T14:05:46.024Z,4.543152
2022-11-21T14:09:09.837Z,4.452515
2022-11-21T14:12:38.419Z,4.442444
2022-11-21T14:16:00.391Z,4.472656
2022-11-21T14:19:25.882Z,4.442444
2022-11-21T14:22:50.999Z,4.27124
2022-11-21T14:26:16.298Z,4.14032
2022-11-21T14:29:41.589Z,4.120178
2022-11-21T15:05:29.114Z,4.27124
2022-11-21T15:09:28.916Z,4.150391
2022-11-21T15:12:09.013Z,4.14032
2022-11-21T15:15:34.323Z,4.089966
2022-11-21T15:18:59.615Z,4.150391
2022-11-21T15:22:25.051Z,4.120178
2022-11-21T15:25:50.323Z,4.120178
2022-11-21T15:29:15.632Z,4.200745
2022-11-21T15:32:40.925Z,4.200745
2022-11-21T15:36:06.260Z,4.120178
2022-11-21T15:39:31.619Z,4.110107
2022-11-21T15:42:56.861Z,4.110107
2022-11-21T15:46:22.155Z,4.150391
2022-11-21T15:49:47.411Z,4.200745
2022-11-21T15:53:12.735Z,4.150391
2022-11-21T15:56:38.080Z,4.180603
2022-11-21T16:00:03.314Z,4.180603
2022-11-21T16:03:28.623Z,4.241028
2022-11-21T16:06:53.984Z,4.261169
2022-11-21T16:10:26.048Z,4.291382
2022-11-21T16:13:44.613Z,4.241028
2022-11-21T16:17:09.910Z,4.291382
2022-11-21T16:20:35.197Z,4.402161
2022-11-21T16:24:00.480Z,4.402161
2022-11-21T16:27:25.873Z,4.442444
2022-11-21T16:30:51.167Z,4.452515
2022-11-21T16:34:16.472Z,4.452515
2022-11-21T16:37:41.992Z,4.422302
2022-11-21T16:41:07.322Z,4.321594
2022-11-21T16:44:33.183Z,4.120178
2022-11-21T16:47:58.675Z,4.079895
2022-11-21T16:51:23.965Z,4.110107
2022-11-21T16:54:49.269Z,4.180603
2022-11-21T16:58:14.618Z,4.200745
2022-11-21T17:01:40.032Z,4.220886
2022-11-21T17:05:05.254Z,4.241028
2022-11-21T17:08:30.625Z,4.321594
2022-11-21T17:11:55.924Z,4.301453
2022-11-21T17:15:21.186Z,4.452515
2022-11-21T17:18:46.535Z,4.472656
2022-11-21T17:22:11.923Z,4.502869
2022-11-21T17:25:37.108Z,4.472656
2022-11-21T17:29:02.381Z,4.452515
2022-11-21T17:32:27.654Z,4.422302
2022-11-21T17:35:52.938Z,4.412231
2022-11-21T17:39:18.230Z,4.402161
2022-11-21T17:42:43.495Z,4.402161
2022-11-21T17:46:10.107Z,4.402161
2022-11-21T17:49:34.046Z,4.422302
2022-11-21T17:52:59.394Z,4.442444
2022-11-21T17:56:24.676Z,4.472656
2022-11-21T17:59:49.959Z,4.341736
2022-11-21T18:03:15.267Z,4.230957
2022-11-21T18:06:40.514Z,4.220886
2022-11-21T18:10:27.788Z,4.301453
2022-11-21T18:13:31.082Z,4.261169
2022-11-21T18:16:56.333Z,4.27124
2022-11-21T18:20:21.585Z,4.180603
2022-11-21T18:23:47.084Z,4.220886
2022-11-21T18:27:12.121Z,4.120178
2022-11-21T18:30:37.405Z,3.928833
2022-11-21T18:34:02.643Z,3.838196
2022-11-21T18:37:28.977Z,3.777771
2022-11-21T18:40:53.135Z,3.747559
2022-11-21T18:44:21.817Z,3.868408
2022-11-21T18:47:43.712Z,3.938904
2022-11-21T18:51:08.985Z,3.938904
2022-11-21T18:54:34.256Z,3.908691
2022-11-21T18:57:59.483Z,3.868408
2022-11-21T19:01:24.811Z,3.838196
2022-11-21T19:04:50.049Z,3.797913
2022-11-21T19:08:15.264Z,3.747559
2022-11-21T19:11:40.570Z,3.757629
2022-11-21T19:15:05.799Z,3.777771
2022-11-21T19:18:31.496Z,3.787842
2022-11-21T19:21:56.279Z,3.828125
2022-11-21T19:25:21.490Z,3.757629
2022-11-21T19:28:46.725Z,3.596497
2022-11-21T19:32:11.925Z,3.576355
2022-11-21T19:35:37.183Z,3.606567
2022-11-21T19:39:02.447Z,3.475647
2022-11-21T19:42:27.620Z,3.334656
2022-11-21T19:45:57.824Z,3.173523
2022-11-21T19:49:18.030Z,3.113098
2022-11-21T19:52:43.261Z,3.032532
2022-11-21T19:56:08.499Z,3.032532
2022-11-21T19:59:33.681Z,3.062744
2022-11-21T20:02:58.934Z,3.103027
2022-11-21T20:06:24.204Z,3.062744
2022-11-21T20:09:49.434Z,3.113098
2022-11-21T20:13:14.690Z,3.153381
2022-11-21T20:16:39.915Z,3.173523
2022-11-21T20:20:05.131Z,3.082886
2022-11-21T20:23:30.334Z,3.052673
2022-11-21T20:26:55.591Z,2.951965
2022-11-21T20:30:20.851Z,2.921753
2022-11-21T20:33:46.038Z,2.901611
2022-11-21T20:37:11.259Z,2.901611
2022-11-21T20:40:36.541Z,2.871399
2022-11-21T20:47:26.997Z,2.750549
2022-11-21T20:51:50.910Z,2.599487
2022-11-21T20:54:17.338Z,2.639771
2022-11-21T20:57:42.531Z,2.690125
2022-11-21T21:01:07.722Z,2.770691
2022-11-21T21:04:32.925Z,2.710266
2022-11-21T21:07:58.109Z,2.659912
2022-11-21T21:11:51.320Z,2.710266
2022-11-21T21:14:48.497Z,2.841187
2022-11-21T21:18:13.701Z,3.022461
2022-11-21T21:21:39.470Z,3.103027
2022-11-21T21:25:04.625Z,3.143311
2022-11-21T21:28:29.825Z,3.203735
2022-11-21T21:31:55.041Z,3.213806
2022-11-21T21:35:20.271Z,3.284302
2022-11-21T21:38:45.468Z,3.284302
2022-11-21T21:42:10.619Z,3.213806
2022-11-21T21:45:35.814Z,3.26416
2022-11-21T21:49:01.007Z,3.284302
2022-11-21T21:52:26.201Z,3.354797
2022-11-21T21:55:51.425Z,3.324585
2022-11-21T21:59:16.583Z,3.244019
2022-11-21T22:02:41.790Z,3.183594
2022-11-21T22:06:06.982Z,3.082886
2022-11-21T22:09:32.332Z,3.002319
2022-11-21T22:12:57.397Z,3.062744
2022-11-21T22:16:22.574Z,3.13324
2022-11-21T22:19:47.759Z,3.143311
2022-11-21T22:23:12.959Z,3.173523
2022-11-21T22:26:38.163Z,3.173523
2022-11-21T22:30:03.383Z,3.103027
2022-11-21T22:33:28.549Z,3.103027
2022-11-21T22:36:53.746Z,3.153381
2022-11-21T22:40:18.932Z,3.183594
2022-11-21T22:43:44.131Z,3.314514
2022-11-21T22:47:09.353Z,3.213806
2022-11-21T22:50:34.499Z,3.143311
2022-11-21T22:53:59.695Z,3.183594
2022-11-21T22:57:24.884Z,3.153381
2022-11-21T23:00:50.080Z,3.153381
2022-11-21T23:04:17.764Z,3.032532
2022-11-21T23:07:40.545Z,3.052673
2022-11-21T23:11:05.649Z,3.113098
2022-11-21T23:14:31.126Z,3.103027
2022-11-21T23:17:56.030Z,3.103027
2022-11-21T23:21:21.241Z,3.233948
2022-11-21T23:24:46.393Z,3.233948
2022-11-21T23:28:11.577Z,3.314514
2022-11-21T23:31:36.770Z,3.314514
2022-11-21T23:35:01.954Z,3.294373
2022-11-21T23:38:27.176Z,3.314514
2022-11-21T23:41:52.368Z,3.153381
2022-11-21T23:45:17.557Z,3.143311
2022-11-21T23:48:42.752Z,3.213806
2022-11-21T23:52:07.949Z,3.173523
2022-11-21T23:55:33.160Z,3.183594
2022-11-21T23:58:58.331Z,3.173523
